sensor_id;sensor_type;location;lat;lon;timestamp;P1;durP1;ratioP1;P2;durP2;ratioP2
37425;SDS011;23285;50.180;7.036;2022-09-27T00:00:29;7.97;;;3.60;;
37425;SDS011;23285;50.180;7.036;2022-09-27T00:03:14;12.73;;;4.33;;
37425;SDS011;23285;50.180;7.036;2022-09-27T00:06:07;13.33;;;5.03;;
37425;SDS011;23285;50.180;7.036;2022-09-27T00:09:02;10.57;;;4.10;;
37425;SDS011;23285;50.180;7.036;2022-09-27T00:11:47;7.57;;;4.50;;
37425;SDS011;23285;50.180;7.036;2022-09-27T00:14:33;12.57;;;5.40;;
37425;SDS011;23285;50.180;7.036;2022-09-27T00:17:18;7.47;;;3.50;;
37425;SDS011;23285;50.180;7.036;2022-09-27T00:20:04;8.33;;;3.60;;
37425;SDS011;23285;50.180;7.036;2022-09-27T00:22:49;7.63;;;3.40;;
37425;SDS011;23285;50.180;7.036;2022-09-27T00:25:35;11.90;;;4.03;;
37425;SDS011;23285;50.180;7.036;2022-09-27T00:28:20;4.67;;;2.27;;
37425;SDS011;23285;50.180;7.036;2022-09-27T00:31:10;6.37;;;2.47;;
37425;SDS011;23285;50.180;7.036;2022-09-27T00:33:59;4.23;;;1.70;;
37425;SDS011;23285;50.180;7.036;2022-09-27T00:36:46;3.30;;;1.30;;
37425;SDS011;23285;50.180;7.036;2022-09-27T00:39:32;1.73;;;1.20;;
37425;SDS011;23285;50.180;7.036;2022-09-27T00:42:17;1.77;;;1.00;;
37425;SDS011;23285;50.180;7.036;2022-09-27T00:47:52;1.03;;;0.93;;
37425;SDS011;23285;50.180;7.036;2022-09-27T00:50:44;1.13;;;0.80;;
37425;SDS011;23285;50.180;7.036;2022-09-27T00:53:34;1.23;;;0.87;;
37425;SDS011;23285;50.180;7.036;2022-09-27T00:56:28;1.13;;;0.70;;
37425;SDS011;23285;50.180;7.036;2022-09-27T00:59:25;0.77;;;0.60;;
37425;SDS011;23285;50.180;7.036;2022-09-27T01:02:14;0.80;;;0.80;;
37425;SDS011;23285;50.180;7.036;2022-09-27T01:04:59;1.40;;;0.70;;
37425;SDS011;23285;50.180;7.036;2022-09-27T01:07:44;0.70;;;0.70;;
37425;SDS011;23285;50.180;7.036;2022-09-27T01:10:31;0.70;;;0.70;;
37425;SDS011;23285;50.180;7.036;2022-09-27T01:13:22;0.50;;;0.50;;
37425;SDS011;23285;50.180;7.036;2022-09-27T01:19:46;0.93;;;0.80;;
37425;SDS011;23285;50.180;7.036;2022-09-27T01:35:01;0.83;;;0.50;;
37425;SDS011;23285;50.180;7.036;2022-09-27T01:37:55;1.83;;;0.60;;
37425;SDS011;23285;50.180;7.036;2022-09-27T01:41:03;0.50;;;0.50;;
37425;SDS011;23285;50.180;7.036;2022-09-27T01:44:12;0.43;;;0.43;;
37425;SDS011;23285;50.180;7.036;2022-09-27T01:51:15;1.20;;;0.50;;
37425;SDS011;23285;50.180;7.036;2022-09-27T01:54:05;0.50;;;0.50;;
37425;SDS011;23285;50.180;7.036;2022-09-27T01:57:24;0.43;;;0.43;;
37425;SDS011;23285;50.180;7.036;2022-09-27T02:00:15;0.43;;;0.40;;
37425;SDS011;23285;50.180;7.036;2022-09-27T02:03:03;0.53;;;0.40;;
37425;SDS011;23285;50.180;7.036;2022-09-27T02:05:58;0.50;;;0.50;;
37425;SDS011;23285;50.180;7.036;2022-09-27T02:09:17;0.57;;;0.50;;
37425;SDS011;23285;50.180;7.036;2022-09-27T02:12:37;0.40;;;0.40;;
37425;SDS011;23285;50.180;7.036;2022-09-27T02:15:31;1.30;;;0.50;;
37425;SDS011;23285;50.180;7.036;2022-09-27T02:25:13;2.40;;;0.50;;
37425;SDS011;23285;50.180;7.036;2022-09-27T02:30:55;0.60;;;0.50;;
37425;SDS011;23285;50.180;7.036;2022-09-27T02:33:45;0.60;;;0.50;;
37425;SDS011;23285;50.180;7.036;2022-09-27T02:36:43;0.50;;;0.50;;
37425;SDS011;23285;50.180;7.036;2022-09-27T02:39:29;1.07;;;0.80;;
37425;SDS011;23285;50.180;7.036;2022-09-27T02:42:21;2.03;;;0.50;;
37425;SDS011;23285;50.180;7.036;2022-09-27T02:45:07;0.50;;;0.50;;
37425;SDS011;23285;50.180;7.036;2022-09-27T02:47:56;0.70;;;0.67;;
37425;SDS011;23285;50.180;7.036;2022-09-27T03:07:44;2.10;;;0.87;;
37425;SDS011;23285;50.180;7.036;2022-09-27T03:10:30;2.80;;;0.83;;
37425;SDS011;23285;50.180;7.036;2022-09-27T03:13:15;1.40;;;0.80;;
37425;SDS011;23285;50.180;7.036;2022-09-27T03:16:00;0.83;;;0.50;;
37425;SDS011;23285;50.180;7.036;2022-09-27T03:19:04;0.70;;;0.70;;
37425;SDS011;23285;50.180;7.036;2022-09-27T03:22:08;3.53;;;0.83;;
37425;SDS011;23285;50.180;7.036;2022-09-27T03:24:54;1.97;;;0.83;;
37425;SDS011;23285;50.180;7.036;2022-09-27T03:27:39;1.07;;;1.00;;
37425;SDS011;23285;50.180;7.036;2022-09-27T03:30:24;0.97;;;0.53;;
37425;SDS011;23285;50.180;7.036;2022-09-27T03:33:10;0.63;;;0.63;;
37425;SDS011;23285;50.180;7.036;2022-09-27T03:36:08;1.00;;;0.70;;
37425;SDS011;23285;50.180;7.036;2022-09-27T03:38:53;3.13;;;0.70;;
37425;SDS011;23285;50.180;7.036;2022-09-27T03:41:38;1.17;;;0.80;;
37425;SDS011;23285;50.180;7.036;2022-09-27T03:44:25;2.10;;;0.80;;
37425;SDS011;23285;50.180;7.036;2022-09-27T03:47:09;0.60;;;0.60;;
37425;SDS011;23285;50.180;7.036;2022-09-27T03:49:56;1.10;;;0.60;;
37425;SDS011;23285;50.180;7.036;2022-09-27T03:52:41;0.60;;;0.60;;
37425;SDS011;23285;50.180;7.036;2022-09-27T03:55:27;1.10;;;0.60;;
37425;SDS011;23285;50.180;7.036;2022-09-27T03:58:13;0.70;;;0.60;;
37425;SDS011;23285;50.180;7.036;2022-09-27T04:00:58;3.47;;;0.87;;
37425;SDS011;23285;50.180;7.036;2022-09-27T04:03:44;1.50;;;0.77;;
37425;SDS011;23285;50.180;7.036;2022-09-27T04:06:48;2.73;;;0.57;;
37425;SDS011;23285;50.180;7.036;2022-09-27T04:09:34;0.90;;;0.50;;
37425;SDS011;23285;50.180;7.036;2022-09-27T04:12:22;1.30;;;0.50;;
37425;SDS011;23285;50.180;7.036;2022-09-27T04:15:07;1.93;;;0.50;;
37425;SDS011;23285;50.180;7.036;2022-09-27T04:18:05;1.50;;;0.83;;
37425;SDS011;23285;50.180;7.036;2022-09-27T04:20:50;0.83;;;0.50;;
37425;SDS011;23285;50.180;7.036;2022-09-27T04:23:36;0.87;;;0.53;;
37425;SDS011;23285;50.180;7.036;2022-09-27T04:26:22;0.57;;;0.57;;
37425;SDS011;23285;50.180;7.036;2022-09-27T04:29:16;0.73;;;0.50;;
37425;SDS011;23285;50.180;7.036;2022-09-27T04:32:07;2.27;;;0.70;;
37425;SDS011;23285;50.180;7.036;2022-09-27T04:35:16;0.60;;;0.60;;
37425;SDS011;23285;50.180;7.036;2022-09-27T04:38:19;0.60;;;0.60;;
37425;SDS011;23285;50.180;7.036;2022-09-27T04:41:07;2.10;;;0.67;;
37425;SDS011;23285;50.180;7.036;2022-09-27T04:43:57;0.60;;;0.60;;
37425;SDS011;23285;50.180;7.036;2022-09-27T04:46:45;0.77;;;0.67;;
37425;SDS011;23285;50.180;7.036;2022-09-27T04:49:30;0.60;;;0.60;;
37425;SDS011;23285;50.180;7.036;2022-09-27T04:52:15;1.03;;;0.73;;
37425;SDS011;23285;50.180;7.036;2022-09-27T04:55:00;0.70;;;0.70;;
37425;SDS011;23285;50.180;7.036;2022-09-27T04:57:48;0.60;;;0.60;;
37425;SDS011;23285;50.180;7.036;2022-09-27T05:00:34;1.57;;;0.77;;
37425;SDS011;23285;50.180;7.036;2022-09-27T05:03:38;0.60;;;0.60;;
37425;SDS011;23285;50.180;7.036;2022-09-27T05:06:33;1.70;;;0.73;;
37425;SDS011;23285;50.180;7.036;2022-09-27T05:09:24;1.77;;;0.87;;
37425;SDS011;23285;50.180;7.036;2022-09-27T05:12:13;1.60;;;0.67;;
37425;SDS011;23285;50.180;7.036;2022-09-27T05:15:02;0.97;;;0.50;;
37425;SDS011;23285;50.180;7.036;2022-09-27T05:18:08;1.50;;;0.70;;
37425;SDS011;23285;50.180;7.036;2022-09-27T05:21:12;2.00;;;0.97;;
37425;SDS011;23285;50.180;7.036;2022-09-27T05:24:02;0.80;;;0.70;;
37425;SDS011;23285;50.180;7.036;2022-09-27T05:26:48;3.27;;;1.07;;
37425;SDS011;23285;50.180;7.036;2022-09-27T05:29:33;1.13;;;0.70;;
37425;SDS011;23285;50.180;7.036;2022-09-27T05:32:42;0.60;;;0.60;;
37425;SDS011;23285;50.180;7.036;2022-09-27T05:35:49;2.13;;;1.00;;
37425;SDS011;23285;50.180;7.036;2022-09-27T05:38:35;1.47;;;0.73;;
37425;SDS011;23285;50.180;7.036;2022-09-27T05:41:20;2.77;;;0.70;;
37425;SDS011;23285;50.180;7.036;2022-09-27T05:44:05;1.33;;;0.93;;
37425;SDS011;23285;50.180;7.036;2022-09-27T05:46:52;2.17;;;1.00;;
37425;SDS011;23285;50.180;7.036;2022-09-27T05:49:38;2.73;;;1.00;;
37425;SDS011;23285;50.180;7.036;2022-09-27T05:52:25;2.73;;;1.10;;
37425;SDS011;23285;50.180;7.036;2022-09-27T05:55:11;2.10;;;0.90;;
37425;SDS011;23285;50.180;7.036;2022-09-27T05:57:57;2.67;;;0.70;;
37425;SDS011;23285;50.180;7.036;2022-09-27T06:00:50;1.73;;;0.93;;
37425;SDS011;23285;50.180;7.036;2022-09-27T06:04:02;0.70;;;0.70;;
37425;SDS011;23285;50.180;7.036;2022-09-27T06:07:07;1.10;;;0.80;;
37425;SDS011;23285;50.180;7.036;2022-09-27T06:09:52;1.03;;;1.00;;
37425;SDS011;23285;50.180;7.036;2022-09-27T06:12:37;1.50;;;1.13;;
37425;SDS011;23285;50.180;7.036;2022-09-27T06:15:31;4.10;;;1.50;;
37425;SDS011;23285;50.180;7.036;2022-09-27T06:18:17;1.37;;;0.90;;
37425;SDS011;23285;50.180;7.036;2022-09-27T06:21:06;2.17;;;0.90;;
37425;SDS011;23285;50.180;7.036;2022-09-27T06:23:52;1.20;;;0.70;;
37425;SDS011;23285;50.180;7.036;2022-09-27T06:26:43;0.97;;;0.87;;
37425;SDS011;23285;50.180;7.036;2022-09-27T06:29:43;0.93;;;0.80;;
37425;SDS011;23285;50.180;7.036;2022-09-27T06:32:36;2.47;;;1.00;;
37425;SDS011;23285;50.180;7.036;2022-09-27T06:35:51;2.33;;;1.10;;
37425;SDS011;23285;50.180;7.036;2022-09-27T06:38:37;1.53;;;0.90;;
37425;SDS011;23285;50.180;7.036;2022-09-27T06:41:43;1.40;;;0.80;;
37425;SDS011;23285;50.180;7.036;2022-09-27T06:44:39;0.90;;;0.80;;
37425;SDS011;23285;50.180;7.036;2022-09-27T06:47:47;1.33;;;0.80;;
37425;SDS011;23285;50.180;7.036;2022-09-27T06:50:48;4.90;;;1.10;;
37425;SDS011;23285;50.180;7.036;2022-09-27T06:53:33;2.57;;;0.80;;
37425;SDS011;23285;50.180;7.036;2022-09-27T06:56:18;1.50;;;0.90;;
37425;SDS011;23285;50.180;7.036;2022-09-27T06:59:10;1.57;;;1.03;;
37425;SDS011;23285;50.180;7.036;2022-09-27T07:02:37;0.93;;;0.93;;
37425;SDS011;23285;50.180;7.036;2022-09-27T07:05:55;1.67;;;1.20;;
37425;SDS011;23285;50.180;7.036;2022-09-27T07:09:01;2.47;;;1.10;;
37425;SDS011;23285;50.180;7.036;2022-09-27T07:11:47;2.23;;;1.20;;
37425;SDS011;23285;50.180;7.036;2022-09-27T07:14:32;2.07;;;1.20;;
37425;SDS011;23285;50.180;7.036;2022-09-27T07:17:19;1.40;;;0.80;;
37425;SDS011;23285;50.180;7.036;2022-09-27T07:20:07;0.97;;;0.90;;
37425;SDS011;23285;50.180;7.036;2022-09-27T07:22:52;1.93;;;0.90;;
37425;SDS011;23285;50.180;7.036;2022-09-27T07:25:37;2.43;;;1.07;;
37425;SDS011;23285;50.180;7.036;2022-09-27T07:28:26;2.60;;;1.13;;
37425;SDS011;23285;50.180;7.036;2022-09-27T07:31:11;1.27;;;0.87;;
37425;SDS011;23285;50.180;7.036;2022-09-27T07:33:57;2.83;;;0.90;;
37425;SDS011;23285;50.180;7.036;2022-09-27T07:36:42;2.43;;;1.40;;
37425;SDS011;23285;50.180;7.036;2022-09-27T07:39:27;2.50;;;0.90;;
37425;SDS011;23285;50.180;7.036;2022-09-27T07:42:16;1.53;;;1.10;;
37425;SDS011;23285;50.180;7.036;2022-09-27T07:45:06;2.30;;;0.93;;
37425;SDS011;23285;50.180;7.036;2022-09-27T07:48:26;1.87;;;0.90;;
37425;SDS011;23285;50.180;7.036;2022-09-27T07:51:46;1.07;;;0.90;;
37425;SDS011;23285;50.180;7.036;2022-09-27T07:54:52;3.77;;;0.90;;
37425;SDS011;23285;50.180;7.036;2022-09-27T07:58:03;1.93;;;1.07;;
37425;SDS011;23285;50.180;7.036;2022-09-27T08:00:49;1.23;;;0.80;;
37425;SDS011;23285;50.180;7.036;2022-09-27T08:03:34;1.67;;;0.90;;
37425;SDS011;23285;50.180;7.036;2022-09-27T08:06:19;1.90;;;0.80;;
37425;SDS011;23285;50.180;7.036;2022-09-27T08:09:06;3.20;;;1.00;;
37425;SDS011;23285;50.180;7.036;2022-09-27T08:11:55;1.30;;;0.90;;
37425;SDS011;23285;50.180;7.036;2022-09-27T08:14:41;3.93;;;1.33;;
37425;SDS011;23285;50.180;7.036;2022-09-27T08:17:29;2.60;;;0.87;;
37425;SDS011;23285;50.180;7.036;2022-09-27T08:20:44;1.23;;;1.00;;
37425;SDS011;23285;50.180;7.036;2022-09-27T08:23:49;1.47;;;0.90;;
37425;SDS011;23285;50.180;7.036;2022-09-27T08:26:46;2.30;;;0.97;;
37425;SDS011;23285;50.180;7.036;2022-09-27T08:29:40;2.77;;;1.10;;
37425;SDS011;23285;50.180;7.036;2022-09-27T08:32:25;5.03;;;1.00;;
37425;SDS011;23285;50.180;7.036;2022-09-27T08:35:12;2.00;;;0.80;;
37425;SDS011;23285;50.180;7.036;2022-09-27T08:37:59;1.90;;;0.90;;
37425;SDS011;23285;50.180;7.036;2022-09-27T08:43:50;1.40;;;1.00;;
37425;SDS011;23285;50.180;7.036;2022-09-27T08:47:14;2.00;;;1.10;;
37425;SDS011;23285;50.180;7.036;2022-09-27T08:50:20;2.53;;;1.00;;
37425;SDS011;23285;50.180;7.036;2022-09-27T08:53:27;0.73;;;0.73;;
37425;SDS011;23285;50.180;7.036;2022-09-27T08:56:20;1.07;;;0.80;;
37425;SDS011;23285;50.180;7.036;2022-09-27T08:59:18;0.93;;;0.80;;
37425;SDS011;23285;50.180;7.036;2022-09-27T09:02:12;1.37;;;1.17;;
37425;SDS011;23285;50.180;7.036;2022-09-27T09:10:52;4.63;;;1.37;;
37425;SDS011;23285;50.180;7.036;2022-09-27T09:14:05;2.00;;;1.30;;
37425;SDS011;23285;50.180;7.036;2022-09-27T09:23:24;2.13;;;1.50;;
37425;SDS011;23285;50.180;7.036;2022-09-27T09:29:17;1.97;;;1.50;;
37425;SDS011;23285;50.180;7.036;2022-09-27T09:32:12;2.30;;;1.37;;
37425;SDS011;23285;50.180;7.036;2022-09-27T09:35:18;3.00;;;1.93;;
37425;SDS011;23285;50.180;7.036;2022-09-27T09:38:10;4.27;;;1.70;;
37425;SDS011;23285;50.180;7.036;2022-09-27T09:44:38;2.50;;;1.70;;
37425;SDS011;23285;50.180;7.036;2022-09-27T09:47:01;5.43;;;2.60;;
37425;SDS011;23285;50.180;7.036;2022-09-27T09:49:49;4.00;;;2.17;;
37425;SDS011;23285;50.180;7.036;2022-09-27T09:52:39;2.50;;;2.03;;
37425;SDS011;23285;50.180;7.036;2022-09-27T09:59:19;6.27;;;2.27;;
37425;SDS011;23285;50.180;7.036;2022-09-27T10:02:20;2.70;;;2.00;;
37425;SDS011;23285;50.180;7.036;2022-09-27T10:05:30;2.03;;;1.67;;
37425;SDS011;23285;50.180;7.036;2022-09-27T10:08:21;3.50;;;1.70;;
37425;SDS011;23285;50.180;7.036;2022-09-27T10:11:23;2.03;;;1.70;;
37425;SDS011;23285;50.180;7.036;2022-09-27T10:14:34;3.53;;;1.57;;
37425;SDS011;23285;50.180;7.036;2022-09-27T10:17:23;2.77;;;1.40;;
37425;SDS011;23285;50.180;7.036;2022-09-27T10:23:17;2.10;;;1.10;;
37425;SDS011;23285;50.180;7.036;2022-09-27T10:26:37;2.33;;;1.67;;
37425;SDS011;23285;50.180;7.036;2022-09-27T10:29:30;1.27;;;1.00;;
37425;SDS011;23285;50.180;7.036;2022-09-27T10:32:21;2.10;;;1.30;;
37425;SDS011;23285;50.180;7.036;2022-09-27T10:35:38;1.40;;;1.30;;
37425;SDS011;23285;50.180;7.036;2022-09-27T10:38:29;1.17;;;1.07;;
37425;SDS011;23285;50.180;7.036;2022-09-27T10:41:38;1.30;;;1.20;;
37425;SDS011;23285;50.180;7.036;2022-09-27T10:44:34;1.30;;;1.20;;
37425;SDS011;23285;50.180;7.036;2022-09-27T10:47:30;2.40;;;1.10;;
37425;SDS011;23285;50.180;7.036;2022-09-27T10:50:24;1.23;;;1.13;;
37425;SDS011;23285;50.180;7.036;2022-09-27T10:53:19;2.50;;;1.20;;
37425;SDS011;23285;50.180;7.036;2022-09-27T10:56:22;1.13;;;1.13;;
37425;SDS011;23285;50.180;7.036;2022-09-27T10:59:14;1.77;;;0.90;;
37425;SDS011;23285;50.180;7.036;2022-09-27T11:02:02;1.00;;;0.97;;
37425;SDS011;23285;50.180;7.036;2022-09-27T11:11:15;1.23;;;1.13;;
37425;SDS011;23285;50.180;7.036;2022-09-27T11:14:20;3.20;;;1.20;;
37425;SDS011;23285;50.180;7.036;2022-09-27T11:20:50;2.20;;;1.10;;
37425;SDS011;23285;50.180;7.036;2022-09-27T11:23:49;1.20;;;1.20;;
37425;SDS011;23285;50.180;7.036;2022-09-27T11:30:08;2.73;;;1.40;;
37425;SDS011;23285;50.180;7.036;2022-09-27T11:37:36;2.47;;;1.20;;
37425;SDS011;23285;50.180;7.036;2022-09-27T11:48:43;1.73;;;1.23;;
37425;SDS011;23285;50.180;7.036;2022-09-27T12:06:08;3.37;;;1.30;;
37425;SDS011;23285;50.180;7.036;2022-09-27T12:09:11;2.40;;;1.20;;
37425;SDS011;23285;50.180;7.036;2022-09-27T12:12:05;2.17;;;1.07;;
37425;SDS011;23285;50.180;7.036;2022-09-27T12:17:51;2.47;;;1.00;;
37425;SDS011;23285;50.180;7.036;2022-09-27T12:20:40;2.17;;;0.80;;
37425;SDS011;23285;50.180;7.036;2022-09-27T12:26:28;3.07;;;0.90;;
37425;SDS011;23285;50.180;7.036;2022-09-27T12:29:25;3.60;;;1.10;;
37425;SDS011;23285;50.180;7.036;2022-09-27T12:38:07;1.00;;;0.80;;
37425;SDS011;23285;50.180;7.036;2022-09-27T12:40:54;2.70;;;1.10;;
37425;SDS011;23285;50.180;7.036;2022-09-27T12:43:52;3.30;;;1.23;;
37425;SDS011;23285;50.180;7.036;2022-09-27T12:53:16;2.60;;;1.10;;
37425;SDS011;23285;50.180;7.036;2022-09-27T13:14:19;2.87;;;1.40;;
37425;SDS011;23285;50.180;7.036;2022-09-27T13:26:53;1.97;;;1.20;;
37425;SDS011;23285;50.180;7.036;2022-09-27T13:29:33;3.87;;;1.30;;
37425;SDS011;23285;50.180;7.036;2022-09-27T13:32:27;1.23;;;1.13;;
37425;SDS011;23285;50.180;7.036;2022-09-27T13:35:38;1.93;;;1.30;;
37425;SDS011;23285;50.180;7.036;2022-09-27T13:38:29;2.37;;;1.20;;
37425;SDS011;23285;50.180;7.036;2022-09-27T13:41:17;2.97;;;1.10;;
37425;SDS011;23285;50.180;7.036;2022-09-27T13:47:30;2.27;;;1.40;;
37425;SDS011;23285;50.180;7.036;2022-09-27T13:53:41;1.17;;;1.00;;
37425;SDS011;23285;50.180;7.036;2022-09-27T13:59:46;1.00;;;0.80;;
37425;SDS011;23285;50.180;7.036;2022-09-27T14:03:03;1.40;;;0.97;;
37425;SDS011;23285;50.180;7.036;2022-09-27T14:06:49;0.70;;;0.70;;
37425;SDS011;23285;50.180;7.036;2022-09-27T14:09:39;3.73;;;1.10;;
37425;SDS011;23285;50.180;7.036;2022-09-27T14:12:47;1.73;;;0.70;;
37425;SDS011;23285;50.180;7.036;2022-09-27T14:15:34;1.20;;;1.03;;
37425;SDS011;23285;50.180;7.036;2022-09-27T14:18:21;0.90;;;0.80;;
37425;SDS011;23285;50.180;7.036;2022-09-27T14:21:11;3.00;;;1.60;;
37425;SDS011;23285;50.180;7.036;2022-09-27T14:24:30;1.40;;;0.93;;
37425;SDS011;23285;50.180;7.036;2022-09-27T14:27:36;3.03;;;1.17;;
37425;SDS011;23285;50.180;7.036;2022-09-27T14:30:33;2.30;;;1.00;;
37425;SDS011;23285;50.180;7.036;2022-09-27T14:33:37;1.63;;;1.20;;
37425;SDS011;23285;50.180;7.036;2022-09-27T14:36:32;1.40;;;0.87;;
37425;SDS011;23285;50.180;7.036;2022-09-27T14:39:39;2.43;;;0.90;;
37425;SDS011;23285;50.180;7.036;2022-09-27T14:42:46;0.97;;;0.90;;
37425;SDS011;23285;50.180;7.036;2022-09-27T14:45:37;1.03;;;0.77;;
37425;SDS011;23285;50.180;7.036;2022-09-27T14:48:27;1.00;;;0.70;;
37425;SDS011;23285;50.180;7.036;2022-09-27T14:51:17;1.80;;;0.70;;
37425;SDS011;23285;50.180;7.036;2022-09-27T14:54:04;0.93;;;0.80;;
37425;SDS011;23285;50.180;7.036;2022-09-27T14:56:54;2.30;;;0.90;;
37425;SDS011;23285;50.180;7.036;2022-09-27T14:59:41;1.20;;;0.70;;
37425;SDS011;23285;50.180;7.036;2022-09-27T15:02:29;1.57;;;0.70;;
37425;SDS011;23285;50.180;7.036;2022-09-27T15:05:17;0.80;;;0.80;;
37425;SDS011;23285;50.180;7.036;2022-09-27T15:08:04;0.70;;;0.70;;
37425;SDS011;23285;50.180;7.036;2022-09-27T15:10:49;2.93;;;1.30;;
37425;SDS011;23285;50.180;7.036;2022-09-27T15:13:35;1.07;;;0.97;;
37425;SDS011;23285;50.180;7.036;2022-09-27T15:16:21;1.00;;;0.80;;
37425;SDS011;23285;50.180;7.036;2022-09-27T15:22:21;1.73;;;1.13;;
37425;SDS011;23285;50.180;7.036;2022-09-27T15:25:15;1.10;;;0.70;;
37425;SDS011;23285;50.180;7.036;2022-09-27T15:28:12;3.57;;;1.20;;
37425;SDS011;23285;50.180;7.036;2022-09-27T15:31:01;3.40;;;1.40;;
37425;SDS011;23285;50.180;7.036;2022-09-27T15:33:51;3.83;;;1.30;;
37425;SDS011;23285;50.180;7.036;2022-09-27T15:39:35;2.27;;;1.17;;
37425;SDS011;23285;50.180;7.036;2022-09-27T15:42:21;2.83;;;1.20;;
37425;SDS011;23285;50.180;7.036;2022-09-27T15:45:19;3.07;;;0.80;;
37425;SDS011;23285;50.180;7.036;2022-09-27T15:48:15;3.87;;;1.00;;
37425;SDS011;23285;50.180;7.036;2022-09-27T15:51:02;2.90;;;1.30;;
37425;SDS011;23285;50.180;7.036;2022-09-27T15:54:25;2.50;;;1.20;;
37425;SDS011;23285;50.180;7.036;2022-09-27T15:57:13;3.33;;;1.17;;
37425;SDS011;23285;50.180;7.036;2022-09-27T15:59:58;6.17;;;1.30;;
37425;SDS011;23285;50.180;7.036;2022-09-27T16:02:44;1.80;;;1.20;;
37425;SDS011;23285;50.180;7.036;2022-09-27T16:05:29;2.03;;;0.83;;
37425;SDS011;23285;50.180;7.036;2022-09-27T16:08:16;2.17;;;0.90;;
37425;SDS011;23285;50.180;7.036;2022-09-27T16:11:01;4.47;;;1.10;;
37425;SDS011;23285;50.180;7.036;2022-09-27T16:13:49;3.53;;;1.23;;
37425;SDS011;23285;50.180;7.036;2022-09-27T16:16:35;5.23;;;1.33;;
37425;SDS011;23285;50.180;7.036;2022-09-27T16:19:22;3.30;;;1.20;;
37425;SDS011;23285;50.180;7.036;2022-09-27T16:22:07;1.87;;;1.20;;
37425;SDS011;23285;50.180;7.036;2022-09-27T16:24:52;5.00;;;1.40;;
37425;SDS011;23285;50.180;7.036;2022-09-27T16:27:37;2.73;;;1.30;;
37425;SDS011;23285;50.180;7.036;2022-09-27T16:30:23;1.93;;;1.30;;
37425;SDS011;23285;50.180;7.036;2022-09-27T16:33:08;2.93;;;1.27;;
37425;SDS011;23285;50.180;7.036;2022-09-27T16:35:53;3.70;;;1.40;;
37425;SDS011;23285;50.180;7.036;2022-09-27T16:38:40;3.50;;;1.27;;
37425;SDS011;23285;50.180;7.036;2022-09-27T16:41:25;2.23;;;1.10;;
37425;SDS011;23285;50.180;7.036;2022-09-27T16:44:11;2.23;;;1.60;;
37425;SDS011;23285;50.180;7.036;2022-09-27T16:46:58;2.63;;;1.77;;
37425;SDS011;23285;50.180;7.036;2022-09-27T16:49:44;3.33;;;1.43;;
37425;SDS011;23285;50.180;7.036;2022-09-27T16:52:48;2.20;;;1.40;;
37425;SDS011;23285;50.180;7.036;2022-09-27T16:55:34;5.50;;;1.50;;
37425;SDS011;23285;50.180;7.036;2022-09-27T16:58:19;1.20;;;1.10;;
37425;SDS011;23285;50.180;7.036;2022-09-27T17:01:05;2.83;;;1.30;;
37425;SDS011;23285;50.180;7.036;2022-09-27T17:03:51;3.10;;;1.70;;
37425;SDS011;23285;50.180;7.036;2022-09-27T17:06:36;1.30;;;1.20;;
37425;SDS011;23285;50.180;7.036;2022-09-27T17:09:22;4.53;;;1.73;;
37425;SDS011;23285;50.180;7.036;2022-09-27T17:12:07;3.97;;;1.20;;
37425;SDS011;23285;50.180;7.036;2022-09-27T17:14:52;4.23;;;1.37;;
37425;SDS011;23285;50.180;7.036;2022-09-27T17:17:38;3.27;;;1.20;;
37425;SDS011;23285;50.180;7.036;2022-09-27T17:20:23;3.80;;;1.67;;
37425;SDS011;23285;50.180;7.036;2022-09-27T17:23:08;1.97;;;1.50;;
37425;SDS011;23285;50.180;7.036;2022-09-27T17:25:53;9.50;;;7.90;;
37425;SDS011;23285;50.180;7.036;2022-09-27T17:28:39;4.83;;;2.27;;
37425;SDS011;23285;50.180;7.036;2022-09-27T17:31:26;5.70;;;3.73;;
37425;SDS011;23285;50.180;7.036;2022-09-27T17:34:12;3.53;;;2.77;;
37425;SDS011;23285;50.180;7.036;2022-09-27T17:36:57;3.93;;;2.43;;
37425;SDS011;23285;50.180;7.036;2022-09-27T17:39:44;4.67;;;3.17;;
37425;SDS011;23285;50.180;7.036;2022-09-27T17:42:29;5.47;;;3.93;;
37425;SDS011;23285;50.180;7.036;2022-09-27T17:45:14;8.53;;;5.10;;
37425;SDS011;23285;50.180;7.036;2022-09-27T17:47:59;8.00;;;5.67;;
37425;SDS011;23285;50.180;7.036;2022-09-27T17:51:02;5.60;;;3.57;;
37425;SDS011;23285;50.180;7.036;2022-09-27T17:53:47;3.60;;;2.77;;
37425;SDS011;23285;50.180;7.036;2022-09-27T17:56:36;2.10;;;1.90;;
37425;SDS011;23285;50.180;7.036;2022-09-27T17:59:22;4.40;;;2.27;;
37425;SDS011;23285;50.180;7.036;2022-09-27T18:02:07;4.80;;;2.17;;
37425;SDS011;23285;50.180;7.036;2022-09-27T18:04:53;5.70;;;2.17;;
37425;SDS011;23285;50.180;7.036;2022-09-27T18:07:38;2.67;;;1.97;;
37425;SDS011;23285;50.180;7.036;2022-09-27T18:10:24;3.50;;;2.30;;
37425;SDS011;23285;50.180;7.036;2022-09-27T18:13:10;3.47;;;1.93;;
37425;SDS011;23285;50.180;7.036;2022-09-27T18:15:56;4.87;;;3.20;;
37425;SDS011;23285;50.180;7.036;2022-09-27T18:18:43;4.13;;;2.17;;
37425;SDS011;23285;50.180;7.036;2022-09-27T18:21:31;4.43;;;2.27;;
37425;SDS011;23285;50.180;7.036;2022-09-27T18:24:17;2.77;;;2.00;;
37425;SDS011;23285;50.180;7.036;2022-09-27T18:27:02;2.93;;;2.07;;
37425;SDS011;23285;50.180;7.036;2022-09-27T18:29:47;3.80;;;2.50;;
37425;SDS011;23285;50.180;7.036;2022-09-27T18:32:32;7.50;;;3.50;;
37425;SDS011;23285;50.180;7.036;2022-09-27T18:35:17;2.40;;;2.20;;
37425;SDS011;23285;50.180;7.036;2022-09-27T18:38:03;5.10;;;2.47;;
37425;SDS011;23285;50.180;7.036;2022-09-27T18:40:48;6.50;;;4.03;;
37425;SDS011;23285;50.180;7.036;2022-09-27T18:43:35;4.10;;;2.53;;
37425;SDS011;23285;50.180;7.036;2022-09-27T18:46:21;3.37;;;2.30;;
37425;SDS011;23285;50.180;7.036;2022-09-27T18:49:07;4.00;;;2.93;;
37425;SDS011;23285;50.180;7.036;2022-09-27T18:51:54;5.13;;;2.70;;
37425;SDS011;23285;50.180;7.036;2022-09-27T18:54:39;7.17;;;3.83;;
37425;SDS011;23285;50.180;7.036;2022-09-27T18:57:25;3.67;;;2.87;;
37425;SDS011;23285;50.180;7.036;2022-09-27T19:00:10;9.53;;;3.97;;
37425;SDS011;23285;50.180;7.036;2022-09-27T19:02:56;4.50;;;2.80;;
37425;SDS011;23285;50.180;7.036;2022-09-27T19:05:41;5.87;;;2.90;;
37425;SDS011;23285;50.180;7.036;2022-09-27T19:08:26;3.93;;;1.90;;
37425;SDS011;23285;50.180;7.036;2022-09-27T19:11:12;3.70;;;2.27;;
37425;SDS011;23285;50.180;7.036;2022-09-27T19:13:58;3.87;;;2.50;;
37425;SDS011;23285;50.180;7.036;2022-09-27T19:16:43;3.67;;;2.20;;
37425;SDS011;23285;50.180;7.036;2022-09-27T19:19:30;4.00;;;2.20;;
37425;SDS011;23285;50.180;7.036;2022-09-27T19:22:15;4.50;;;1.93;;
37425;SDS011;23285;50.180;7.036;2022-09-27T19:25:00;2.67;;;2.00;;
37425;SDS011;23285;50.180;7.036;2022-09-27T19:27:45;3.67;;;2.20;;
37425;SDS011;23285;50.180;7.036;2022-09-27T19:30:30;3.13;;;2.27;;
37425;SDS011;23285;50.180;7.036;2022-09-27T19:33:15;3.70;;;2.40;;
37425;SDS011;23285;50.180;7.036;2022-09-27T19:36:00;4.03;;;2.40;;
37425;SDS011;23285;50.180;7.036;2022-09-27T19:38:45;4.27;;;1.87;;
37425;SDS011;23285;50.180;7.036;2022-09-27T19:41:31;5.17;;;2.20;;
37425;SDS011;23285;50.180;7.036;2022-09-27T19:44:17;4.27;;;1.80;;
37425;SDS011;23285;50.180;7.036;2022-09-27T19:47:02;3.37;;;1.90;;
37425;SDS011;23285;50.180;7.036;2022-09-27T19:49:47;3.70;;;1.73;;
37425;SDS011;23285;50.180;7.036;2022-09-27T19:52:32;3.67;;;2.10;;
37425;SDS011;23285;50.180;7.036;2022-09-27T19:55:17;4.90;;;1.80;;
37425;SDS011;23285;50.180;7.036;2022-09-27T19:58:03;3.73;;;1.77;;
37425;SDS011;23285;50.180;7.036;2022-09-27T20:00:55;3.73;;;2.07;;
37425;SDS011;23285;50.180;7.036;2022-09-27T20:03:42;2.70;;;1.80;;
37425;SDS011;23285;50.180;7.036;2022-09-27T20:06:27;2.17;;;1.40;;
37425;SDS011;23285;50.180;7.036;2022-09-27T20:09:12;4.20;;;1.80;;
37425;SDS011;23285;50.180;7.036;2022-09-27T20:11:57;9.90;;;1.90;;
37425;SDS011;23285;50.180;7.036;2022-09-27T20:14:42;3.23;;;1.80;;